createdAt,value
2019-01-13T00:04:52.847Z,11.53
2019-01-13T00:07:33.601Z,17.80
2019-01-13T00:10:02.631Z,14.10
2019-01-13T00:12:50.967Z,14.47
2019-01-13T00:15:35.126Z,11.67
2019-01-13T00:21:07.176Z,12.70
2019-01-13T00:26:36.498Z,11.20
2019-01-13T00:31:53.544Z,13.87
2019-01-13T00:34:41.783Z,13.00
2019-01-13T00:37:22.407Z,14.03
2019-01-13T00:42:35.458Z,13.60
2019-01-13T00:45:23.764Z,16.93
2019-01-13T00:48:07.229Z,13.37
2019-01-13T00:50:48.380Z,14.53
2019-01-13T00:53:35.115Z,12.60
2019-01-13T00:56:16.545Z,9.77
2019-01-13T00:58:57.360Z,10.57
2019-01-13T01:04:26.189Z,11.57
2019-01-13T01:07:07.228Z,10.80
2019-01-13T01:09:55.040Z,15.87
2019-01-13T01:15:20.767Z,15.30
2019-01-13T01:18:02.264Z,14.77
2019-01-13T01:20:46.673Z,16.20
2019-01-13T01:23:28.108Z,19.67
2019-01-13T01:26:12.351Z,16.97
2019-01-13T01:28:53.803Z,15.50
2019-01-13T01:31:37.674Z,16.13
2019-01-13T01:34:19.024Z,18.17
2019-01-13T01:36:48.178Z,19.77
2019-01-13T01:39:36.382Z,20.27
2019-01-13T01:42:05.332Z,18.03
2019-01-13T01:45:35.409Z,18.47
2019-01-13T01:51:10.831Z,20.83
2019-01-13T01:53:55.023Z,20.20
2019-01-13T01:59:22.679Z,22.33
2019-01-13T02:04:53.810Z,36.10
2019-01-13T02:10:23.326Z,28.27
2019-01-13T02:15:55.823Z,35.27
2019-01-13T02:21:25.339Z,18.40
2019-01-13T02:24:05.968Z,22.23
2019-01-13T02:26:49.484Z,21.63
2019-01-13T02:32:21.673Z,26.67
2019-01-13T02:37:51.025Z,18.87
2019-01-13T02:40:37.049Z,19.90
2019-01-13T02:43:18.159Z,14.90
2019-01-13T02:45:58.837Z,25.73
2019-01-13T02:48:40.055Z,11.13
2019-01-13T02:53:51.349Z,12.10
2019-01-13T02:59:16.153Z,21.73
2019-01-13T03:01:57.852Z,13.10
2019-01-13T03:13:04.105Z,15.60
2019-01-13T03:18:41.180Z,15.97
2019-01-13T03:24:12.773Z,17.00
2019-01-13T03:26:54.822Z,20.30
2019-01-13T03:29:39.290Z,17.93
2019-01-13T03:35:10.965Z,17.60
2019-01-13T03:40:39.853Z,23.10
2019-01-13T03:52:03.840Z,23.77
2019-01-13T03:57:29.187Z,21.57
2019-01-13T04:00:16.325Z,19.87
2019-01-13T04:02:48.182Z,25.50
2019-01-13T04:05:17.308Z,21.20
2019-01-13T04:08:05.455Z,23.30
2019-01-13T04:10:34.466Z,23.70
2019-01-13T04:16:11.680Z,18.07
2019-01-13T04:21:35.087Z,21.53
2019-01-13T04:24:18.423Z,18.60
2019-01-13T04:27:02.739Z,20.70
2019-01-13T04:32:29.151Z,19.30
2019-01-13T04:38:01.655Z,17.80
2019-01-13T04:40:30.721Z,21.60
2019-01-13T04:43:18.837Z,20.07
2019-01-13T04:46:26.300Z,18.13
2019-01-13T04:49:07.121Z,20.60
2019-01-13T04:51:49.101Z,17.77
2019-01-13T04:57:26.403Z,19.30
2019-01-13T05:02:39.298Z,20.37
2019-01-13T05:05:27.507Z,17.50
2019-01-13T05:08:11.819Z,18.80
2019-01-13T05:13:41.453Z,21.07
2019-01-13T05:16:10.558Z,19.10
2019-01-13T05:18:58.793Z,19.37
2019-01-13T05:21:46.933Z,17.23
2019-01-13T05:24:30.809Z,19.90
2019-01-13T05:30:05.552Z,16.03
2019-01-13T05:35:36.613Z,14.37
2019-01-13T05:38:17.156Z,18.03
2019-01-13T05:41:03.623Z,12.90
2019-01-13T05:43:45.477Z,17.40
2019-01-13T05:49:32.906Z,11.33
2019-01-13T05:54:56.694Z,13.37
2019-01-13T05:57:37.381Z,20.13
2019-01-13T06:00:08.491Z,22.10
2019-01-13T06:02:56.676Z,13.40
2019-01-13T06:05:37.552Z,7.10
2019-01-13T06:08:06.560Z,9.30
2019-01-13T06:10:54.747Z,11.70
2019-01-13T06:13:42.916Z,9.80
2019-01-13T06:16:26.947Z,8.77
2019-01-13T06:24:48.531Z,6.17
2019-01-13T06:27:29.943Z,6.17
2019-01-13T06:29:58.966Z,3.93
2019-01-13T06:42:25.851Z,7.57
2019-01-13T06:45:08.298Z,7.53
2019-01-13T06:47:49.794Z,6.53
2019-01-13T06:50:30.418Z,5.00
2019-01-13T06:53:00.511Z,6.60
2019-01-13T06:55:48.954Z,5.87
2019-01-13T06:58:37.181Z,7.90
2019-01-13T07:01:18.060Z,10.83
2019-01-13T07:03:59.141Z,6.00
2019-01-13T07:06:40.519Z,7.50
2019-01-13T07:09:24.218Z,6.33
2019-01-13T07:14:51.874Z,9.23
2019-01-13T07:20:24.357Z,7.30
2019-01-13T07:29:24.793Z,5.50
2019-01-13T07:34:55.966Z,3.63
2019-01-13T07:37:52.270Z,5.23
2019-01-13T07:43:43.773Z,3.27
2019-01-13T07:49:13.390Z,5.10
2019-01-13T07:57:48.102Z,4.37
2019-01-13T08:00:31.676Z,3.17
2019-01-13T08:08:52.598Z,2.93
2019-01-13T08:14:27.371Z,2.47
2019-01-13T08:17:10.657Z,2.43
2019-01-13T08:19:52.068Z,3.10
2019-01-13T08:25:20.664Z,5.93
2019-01-13T08:40:18.175Z,6.60
2019-01-13T08:42:47.303Z,4.67
2019-01-13T08:45:35.611Z,7.83
2019-01-13T08:48:04.967Z,6.30
2019-01-13T08:56:41.617Z,4.10
2019-01-13T08:59:10.737Z,3.20
2019-01-13T09:01:39.939Z,1.83
2019-01-13T09:04:09.017Z,3.37
2019-01-13T09:07:13.441Z,2.90
2019-01-13T09:09:40.289Z,3.20
2019-01-13T09:12:21.469Z,4.60
2019-01-13T09:14:50.639Z,3.23
2019-01-13T09:17:38.868Z,2.57
2019-01-13T09:20:20.976Z,5.00
2019-01-13T09:23:06.112Z,4.00
2019-01-13T09:25:47.203Z,2.50
2019-01-13T09:28:27.755Z,2.53
2019-01-13T09:34:07.250Z,2.03
2019-01-13T09:36:51.907Z,2.60
2019-01-13T09:39:41.517Z,2.00
2019-01-13T09:42:52.533Z,2.23
2019-01-13T09:45:33.707Z,3.70
2019-01-13T09:51:00.786Z,2.63
2019-01-13T09:56:40.104Z,1.93
2019-01-13T09:59:29.494Z,2.43
2019-01-13T10:02:13.481Z,3.57
2019-01-13T10:04:42.563Z,2.13
2019-01-13T10:07:33.039Z,2.70
2019-01-13T10:10:21.368Z,2.97
2019-01-13T10:13:05.447Z,3.53
2019-01-13T10:15:34.672Z,2.17
2019-01-13T10:18:23.019Z,6.03
2019-01-13T10:21:11.340Z,3.73
2019-01-13T10:23:52.599Z,4.53
2019-01-13T10:26:33.258Z,2.50
2019-01-13T10:29:15.775Z,3.17
2019-01-13T10:37:44.446Z,7.23
2019-01-13T10:40:25.877Z,6.23
2019-01-13T10:43:06.450Z,6.93
2019-01-13T10:48:32.131Z,9.77
2019-01-13T10:51:12.838Z,2.50
2019-01-13T10:53:42.050Z,7.00
2019-01-13T11:02:38.232Z,5.67
2019-01-13T11:08:11.689Z,16.30
2019-01-13T11:10:50.673Z,9.53
2019-01-13T11:13:38.793Z,8.70
2019-01-13T11:16:27.799Z,7.27
2019-01-13T11:21:54.905Z,5.97
2019-01-13T11:24:35.912Z,3.10
2019-01-13T11:27:17.534Z,3.13
2019-01-13T11:29:58.702Z,5.77
2019-01-13T11:32:40.003Z,6.20
2019-01-13T11:35:21.000Z,6.97
2019-01-13T11:38:02.409Z,3.97
2019-01-13T11:41:08.164Z,5.13
2019-01-13T11:43:36.854Z,6.43
2019-01-13T11:46:20.160Z,7.73
2019-01-13T11:49:01.103Z,3.03
2019-01-13T11:51:42.836Z,4.70
2019-01-13T11:54:23.578Z,2.53
2019-01-13T11:56:53.292Z,2.60
2019-01-13T11:59:41.842Z,2.70
2019-01-13T12:02:32.806Z,3.83
2019-01-13T12:05:13.857Z,1.67
2019-01-13T12:07:55.609Z,2.20
2019-01-13T12:10:37.011Z,2.80
2019-01-13T12:13:18.782Z,3.30
2019-01-13T12:16:00.134Z,3.13
2019-01-13T12:18:41.009Z,2.37
2019-01-13T12:21:22.860Z,3.07
2019-01-13T12:26:52.672Z,2.47
2019-01-13T12:29:34.006Z,2.10
2019-01-13T12:32:05.343Z,3.80
2019-01-13T12:37:53.582Z,5.77
2019-01-13T12:40:36.618Z,4.00
2019-01-13T12:43:17.808Z,4.30
2019-01-13T12:45:47.320Z,4.67
2019-01-13T12:48:35.713Z,2.87
2019-01-13T12:51:24.095Z,4.40
2019-01-13T12:54:06.877Z,11.50
2019-01-13T12:56:47.481Z,4.57
2019-01-13T12:59:16.593Z,4.50
2019-01-13T13:02:04.925Z,13.10
2019-01-13T13:04:49.117Z,10.43
2019-01-13T13:07:30.610Z,7.70
2019-01-13T13:10:14.094Z,6.10
2019-01-13T13:12:56.637Z,6.73
2019-01-13T13:15:39.302Z,12.17
2019-01-13T13:18:21.417Z,3.70
2019-01-13T13:21:06.822Z,6.43
2019-01-13T13:26:38.553Z,6.13
2019-01-13T13:32:07.422Z,15.53
2019-01-13T13:34:36.580Z,6.70
2019-01-13T13:37:24.822Z,4.27
2019-01-13T13:40:13.708Z,5.83
2019-01-13T13:42:57.640Z,5.30
2019-01-13T13:48:30.548Z,5.53
2019-01-13T13:51:11.341Z,5.17
2019-01-13T13:53:53.388Z,3.33
2019-01-13T13:59:23.675Z,2.70
2019-01-13T14:04:55.600Z,3.10
2019-01-13T14:07:38.619Z,3.43
2019-01-13T14:10:20.015Z,3.30
2019-01-13T14:13:01.198Z,2.97
2019-01-13T14:15:42.799Z,3.00
2019-01-13T14:18:23.281Z,4.13
2019-01-13T14:21:06.812Z,4.30
2019-01-13T14:26:34.461Z,4.53
2019-01-13T14:29:16.021Z,2.90
2019-01-13T14:44:06.568Z,2.13
2019-01-13T14:49:32.133Z,3.77
2019-01-13T14:52:12.821Z,3.10
2019-01-13T14:54:57.439Z,3.40
2019-01-13T15:00:26.686Z,2.73
2019-01-13T15:05:45.117Z,2.67
2019-01-13T15:08:33.514Z,2.40
2019-01-13T15:11:17.615Z,2.00
2019-01-13T15:13:46.663Z,2.07
2019-01-13T15:16:34.952Z,2.40
2019-01-13T15:19:23.343Z,3.87
2019-01-13T15:22:04.524Z,4.00
2019-01-13T15:24:33.691Z,4.00
2019-01-13T15:27:05.476Z,3.83
2019-01-13T15:29:34.661Z,4.47
2019-01-13T15:32:22.955Z,2.93
2019-01-13T15:35:04.216Z,2.50
2019-01-13T15:40:45.993Z,2.60
2019-01-13T15:43:27.349Z,4.73
2019-01-13T15:45:56.587Z,4.37
2019-01-13T15:48:44.993Z,2.80
2019-01-13T15:51:25.491Z,3.43
2019-01-13T15:54:06.124Z,8.20
2019-01-13T15:56:47.471Z,3.40
2019-01-13T16:02:20.819Z,2.37
2019-01-13T16:07:44.284Z,3.10
2019-01-13T16:10:32.942Z,2.37
2019-01-13T16:13:15.826Z,3.53
2019-01-13T16:15:56.777Z,3.17
2019-01-13T16:18:40.671Z,3.17
2019-01-13T16:21:27.599Z,5.03
2019-01-13T16:24:09.155Z,3.37
2019-01-13T16:29:34.879Z,3.53
2019-01-13T16:32:16.531Z,5.13
2019-01-13T16:35:00.339Z,4.13
2019-01-13T16:37:41.161Z,5.20
2019-01-13T16:40:23.254Z,4.30
2019-01-13T16:45:50.319Z,8.83
2019-01-13T16:48:31.185Z,3.90
2019-01-13T16:51:28.240Z,6.20
2019-01-13T16:54:13.881Z,9.87
2019-01-13T16:56:57.487Z,7.00
2019-01-13T16:59:38.444Z,12.93
2019-01-13T17:02:19.863Z,13.87
2019-01-13T17:05:15.728Z,13.47
2019-01-13T17:07:59.984Z,20.40
2019-01-13T17:10:41.314Z,21.43
2019-01-13T17:13:26.651Z,9.37
2019-01-13T17:16:07.764Z,7.20
2019-01-13T17:18:51.863Z,5.17
2019-01-13T17:24:22.037Z,3.83
2019-01-13T17:29:57.677Z,3.27
2019-01-13T17:32:39.172Z,2.60
2019-01-13T17:35:47.132Z,2.80
2019-01-13T17:38:28.296Z,6.83
2019-01-13T17:41:13.297Z,3.43
2019-01-13T17:43:57.508Z,3.10
2019-01-13T17:46:44.604Z,4.63
2019-01-13T17:52:16.066Z,4.57
2019-01-13T18:01:12.198Z,4.70
2019-01-13T18:06:56.172Z,2.23
2019-01-13T18:09:38.695Z,3.60
2019-01-13T18:12:54.181Z,1.90
2019-01-13T18:15:25.703Z,2.90
2019-01-13T18:18:06.797Z,2.37
2019-01-13T18:20:50.793Z,3.40
2019-01-13T18:32:56.055Z,4.17
2019-01-13T18:35:36.729Z,3.03
2019-01-13T18:43:34.941Z,6.27
2019-01-13T18:49:19.109Z,18.97
2019-01-13T18:51:48.347Z,8.60
2019-01-13T18:54:36.763Z,8.23
2019-01-13T19:00:01.960Z,6.63
2019-01-13T19:02:50.062Z,7.80
2019-01-13T19:05:36.464Z,11.13
2019-01-13T19:08:22.654Z,12.30
2019-01-13T19:14:19.340Z,17.33
2019-01-13T19:20:32.574Z,9.40
2019-01-13T19:26:05.286Z,5.47
2019-01-13T19:28:54.563Z,6.20
2019-01-13T19:31:23.772Z,5.80
2019-01-13T19:39:59.600Z,6.90
2019-01-13T19:42:28.745Z,7.40
2019-01-13T19:45:17.736Z,6.40
2019-01-13T19:50:50.605Z,7.73
2019-01-13T19:53:38.970Z,8.80
2019-01-13T19:56:27.240Z,7.23
2019-01-13T19:59:08.123Z,5.27
2019-01-13T20:04:38.099Z,8.77
2019-01-13T20:07:08.065Z,4.10
2019-01-13T20:09:56.491Z,8.90
2019-01-13T20:16:36.203Z,5.80
2019-01-13T20:19:07.134Z,4.73
2019-01-13T20:21:47.803Z,3.90
2019-01-13T20:27:31.754Z,3.10
2019-01-13T20:30:12.481Z,4.80
2019-01-13T20:32:53.219Z,3.07
2019-01-13T20:38:21.450Z,4.53
2019-01-13T20:43:49.815Z,1.90
2019-01-13T20:49:22.153Z,8.50
2019-01-13T20:51:51.374Z,3.07
2019-01-13T20:54:39.745Z,2.17
2019-01-13T20:57:28.026Z,2.40
2019-01-13T21:00:12.489Z,1.43
2019-01-13T21:02:58.799Z,1.50
2019-01-13T21:05:28.302Z,3.37
2019-01-13T21:07:57.437Z,1.70
2019-01-13T21:10:45.758Z,1.70
2019-01-13T21:13:34.117Z,3.40
2019-01-13T21:16:15.308Z,2.07
2019-01-13T21:20:02.487Z,1.60
2019-01-13T21:21:45.412Z,2.63
2019-01-13T21:27:11.732Z,5.47
2019-01-13T21:32:37.056Z,4.13
2019-01-13T21:35:33.541Z,20.10
2019-01-13T21:38:22.418Z,26.60
2019-01-13T21:40:51.766Z,18.50
2019-01-13T21:43:40.006Z,3.60
2019-01-13T21:46:28.479Z,2.60
2019-01-13T21:49:09.825Z,9.60
2019-01-13T21:54:35.833Z,4.03
2019-01-13T22:00:07.397Z,7.73
2019-01-13T22:05:41.164Z,3.97
2019-01-13T22:10:58.709Z,4.73
2019-01-13T22:13:46.901Z,5.80
2019-01-13T22:16:30.855Z,2.50
2019-01-13T22:24:47.658Z,3.60
2019-01-13T22:27:29.132Z,2.37
2019-01-13T22:30:15.629Z,5.20
2019-01-13T22:32:44.735Z,4.27
2019-01-13T22:39:18.406Z,6.90
2019-01-13T22:42:06.699Z,4.53
2019-01-13T22:44:58.261Z,3.87
2019-01-13T22:47:40.848Z,3.33
2019-01-13T22:53:43.704Z,4.23
2019-01-13T23:11:19.971Z,7.80
2019-01-13T23:16:51.703Z,2.07
2019-01-13T23:19:51.709Z,7.80
2019-01-13T23:22:24.057Z,8.50
2019-01-13T23:25:04.606Z,4.47
2019-01-13T23:27:48.766Z,3.13
2019-01-13T23:33:15.155Z,2.57
2019-01-13T23:36:02.712Z,4.13
2019-01-13T23:41:28.502Z,5.83
2019-01-13T23:47:01.252Z,4.23
2019-01-13T23:52:19.044Z,4.50
2019-01-13T23:55:07.283Z,4.40
2019-01-13T23:58:10.633Z,7.70
